»·PEaware :: N61709 KVGT-KIFP

N61709 :: KVGT-KIFP

FLIGHT INFORMATION

Flight Status: Arrived
Operator: Privately registered:
United States
More flights under this callsign
Pilot: Chris O. (30060)
Aircraft: PIPER PA-30 TWIN COMANCHE
(PA30)
More flights by this aircraft type
Origin: KVGT North Las Vegas
United States
Destination: KIFP Laughlin/Bullhead Intl
United States
More flights between these airports :: More routes between these airports
Route: NOTWN5 LAS BLD V237 LYNSY
File this flight plan on PilotEdge
Remarks: RMK / SIMBRIEF
Altitude:
(Current/Filed)
9,000ft
Speed:
(Current/Filed)
150kts
Departed: 27-Jun-22 08:54 AM
Arrived: 27-Jun-22 09:32 AM
Distance/Time
Traveled:
71nm/0:38
Distance/Time
To Go:
Arrived

Flight Plot

Page will automatically refresh every two minutes.

Flight plan parsing failed; only flown route is shown


Map Options




Map Legend


Flown Route
Filed Route
Departure Airport
Arrival Airport
Navaid (VOR, NDB)
Fix

Horizontal Profiles

Position Reports

Time Latitude Longitude Heading Altitude Ground
Speed
27-Jun-22 08:41 36.208243 -115.197778 177 2192ft 0kts
27-Jun-22 08:42 36.208243 -115.197778 177 2192ft 0kts
27-Jun-22 08:43 36.208243 -115.197778 177 2192ft 0kts
27-Jun-22 08:44 36.208243 -115.197778 177 2192ft 0kts
27-Jun-22 08:45 36.208243 -115.197778 177 2192ft 0kts
27-Jun-22 08:46 36.208243 -115.197778 177 2192ft 0kts
27-Jun-22 08:47 36.208243 -115.197778 177 2192ft 0kts
27-Jun-22 08:48 36.208243 -115.197778 177 2192ft 0kts
27-Jun-22 08:49 36.208099 -115.196619 91 2187ft 0kts
27-Jun-22 08:50 36.210255 -115.198901 318 2196ft 16kts
27-Jun-22 08:50 36.212020 -115.201139 323 2203ft 4kts
27-Jun-22 08:52 36.212685 -115.203205 309 2207ft 0kts
27-Jun-22 08:53 36.212685 -115.203205 309 2207ft 0kts
27-Jun-22 08:54 36.213606 -115.188557 90 2223ft 100kts
27-Jun-22 08:55 36.203132 -115.163739 195 3208ft 108kts
27-Jun-22 08:55 36.192480 -115.191810 261 3997ft 116kts
27-Jun-22 08:57 36.189578 -115.237820 295 4989ft 125kts
27-Jun-22 08:58 36.221736 -115.265745 326 5418ft 136kts
27-Jun-22 08:59 36.252659 -115.284994 27 6184ft 126kts
27-Jun-22 08:59 36.255640 -115.257056 155 6729ft 125kts
27-Jun-22 09:00 36.222976 -115.242509 155 7387ft 124kts
27-Jun-22 09:01 36.191341 -115.225373 155 8022ft 124kts
27-Jun-22 09:03 36.159477 -115.197808 125 8709ft 123kts
27-Jun-22 09:03 36.142740 -115.168548 124 8988ft 133kts
27-Jun-22 09:04 36.120213 -115.128948 124 8985ft 146kts
27-Jun-22 09:05 36.096100 -115.086992 123 8985ft 151kts
27-Jun-22 09:07 36.067337 -115.037609 123 8987ft 152kts
27-Jun-22 09:07 36.046544 -115.002301 123 8989ft 153kts
27-Jun-22 09:08 36.026481 -114.956442 112 8991ft 152kts
27-Jun-22 09:09 36.008324 -114.909107 112 8995ft 153kts
27-Jun-22 09:10 35.993412 -114.861024 145 8984ft 155kts
27-Jun-22 09:11 35.951712 -114.846155 163 8988ft 157kts
27-Jun-22 09:12 35.909460 -114.832955 163 8988ft 157kts
27-Jun-22 09:13 35.869367 -114.820424 163 8986ft 157kts
27-Jun-22 09:14 35.828012 -114.807482 163 8797ft 146kts
27-Jun-22 09:15 35.789314 -114.795552 163 8326ft 152kts
27-Jun-22 09:16 35.745438 -114.781966 163 7581ft 170kts
27-Jun-22 09:17 35.699348 -114.767770 163 6729ft 152kts
27-Jun-22 09:18 35.660689 -114.756250 163 6749ft 140kts
27-Jun-22 09:19 35.620363 -114.741541 161 6734ft 159kts
27-Jun-22 09:20 35.578048 -114.720910 158 6717ft 167kts
27-Jun-22 09:21 35.534732 -114.698184 157 6699ft 170kts
27-Jun-22 09:22 35.491646 -114.673737 154 6690ft 171kts
27-Jun-22 09:23 35.450078 -114.647963 154 5974ft 163kts
27-Jun-22 09:24 35.408629 -114.623859 158 4890ft 176kts
27-Jun-22 09:25 35.362373 -114.599461 158 3941ft 187kts
27-Jun-22 09:26 35.313281 -114.575119 160 3064ft 192kts
27-Jun-22 09:27 35.262286 -114.563204 177 2191ft 176kts
27-Jun-22 09:28 35.221994 -114.561240 184 2015ft 110kts
27-Jun-22 09:29 35.188090 -114.561009 180 1263ft 123kts
27-Jun-22 09:30 35.162410 -114.559908 178 707ft 72kts
27-Jun-22 09:31 35.155935 -114.557727 87 704ft 15kts
27-Jun-22 09:32 35.155935 -114.557727 87 704ft 15kts

Navigation Log

Ident Type
Flight plan parsing failed, navigation log unavailable